Etusivu
METAR-TAF:

METAR-TAF

Lentoasemat :

Niamey, Niger

Diori Hamanin kansainvälinen lentoasema

Leveyspiiri: 13-29N, Pituuspiiri: 002-10E, korkeus merenpinnasta: 223 m

Tämänhetkinen sää

Tämä raportti tehtiin 12 tuntia ja 4 minuuttia sitten, kello 15.00 UTC
Tuuli 6 kn etelästä/kaakosta, vaihdellen idän/kaakon ja lounaan välillä
Lämpötila 39°C
Kosteus 6%
Ilmanpaine 1005 hPa
Näkyvyys: 2800 m
laajalle levinnyttä pölyä

METAR: DRRN 201500Z 16006KT 120V230 2800 DU NSC 39/M05 Q1005 BECMG 3500

Aika: 04:04 (03:04 UTC)

Sääennuste

Tämä raportti tehtiin 16 tuntia ja 4 minuuttia sitten, kello 11.00 UTC
Ennuste voimassa 20. päivästä klo 12 UTC - 21. päivään klo 18 UTC
Tuuli 9 kn kaakosta
Näkyvyys: 2500 m
laajalle levinnyttä pölyä
Tulossa
20. päivästä klo 14 UTC - 20. päivään klo 16 UTC
Näkyvyys: 3500 m
Ajoittain
20. päivästä klo 06 UTC - 20. päivään klo 10 UTC
Näkyvyys: 2000 m

TAF: DRRN 201100Z 2012/2118 14009KT 2500 DU NSC BECMG 2014/2016 3500 TEMPO 2006/2010 2000

Säähavainnot ja -ennusteet yli 4000 lentoasemalta (METAR- ja TAF-raportit).

Käytössä olevat sääasemat on merkitty karttaan keltaisilla ja punaisilla pisteillä.

Aseta hiiri pisteen päälle nähdäksesi sääaseman nimen.

Klikkaa sitten nähdäksesi säähavainnot ja -ennusteet.

Kartan vaihtaminen: klikkaa mustalla rastilla varustettuja vihreitä pisteitä, niin voit zoomata sisään; viivalla varustettua vihreää pistettä, niin voit zoomata ulos tai vihreitä nuolia, niin pääset viereisille kartoille.


METAR-TAF: